सभी
Prairie Creek Airport (Leesville, LA) 57LS मौसम
There is no TAF data available at 57LS or any nearby airports.
There is no METAR data available at 57LS. Showing METAR data for KDRI (26 mi S).
Recent DRI METAR history (no data for 57LS)
| Date | Time (CDT) | Flight Rules | Wind Dir. | Speed | Type | Height AGL (ft) | Visibility | Temp (°C) | Temp (°F) | Dew Point (°C) | Dew Point (°F) | Rel. Humid. | Pressure | Density Altitude | Remarks |
|---|---|---|---|---|---|---|---|---|---|---|---|---|---|---|---|
| 08-मई | 04:55 | VFR | 70° | 3 kt | 10 miles | 18° | 64° | 16° | 60° | 89% | 29.95 in Hg | 531 ft | |||
| 08-मई | 04:35 | VFR | Variable | 4 kt | 10 miles | 18° | 64° | 16° | 60° | 90% | 29.94 in Hg | 541 ft | |||
| 08-मई | 04:15 | VFR | 80° | 4 kt | 10 miles | 18° | 64° | 16° | 60° | 91% | 29.94 in Hg | 541 ft | |||
| 08-मई | 03:55 | VFR | Variable | 4 kt | 10 miles | 18° | 64° | 16° | 60° | 91% | 29.94 in Hg | 541 ft | |||
| 08-मई | 03:35 | VFR | 70° | 3 kt | 10 miles | 18° | 64° | 17° | 62° | 94% | 29.95 in Hg | 531 ft | |||
| 08-मई | 03:15 | VFR | 40° | 4 kt | 10 miles | 18° | 64° | 17° | 62° | 94% | 29.95 in Hg | 531 ft | |||
| 08-मई | 02:55 | VFR | 40° | 4 kt | 10 miles | 18° | 64° | 17° | 62° | 96% | 29.95 in Hg | 531 ft | |||
| 08-मई | 02:35 | VFR | 50° | 3 kt | 10 miles | 17° | 62° | 17° | 62° | 96% | 29.96 in Hg | 401 ft | |||
| 08-मई | 02:15 | VFR | 40° | 4 kt | 10 miles | 17° | 62° | 17° | 62° | 96% | 29.96 in Hg | 401 ft | |||
| 08-मई | 01:55 | VFR | Calm | 10 miles | 18° | 64° | 17° | 62° | 95% | 29.96 in Hg | 521 ft | ||||
| 08-मई | 01:15 | VFR | 80° | 3 kt | 10 miles | 18° | 64° | 17° | 62° | 95% | 29.96 in Hg | 521 ft | |||
| 08-मई | 00:55 | VFR | 110° | 4 kt | 10 miles | 18° | 64° | 17° | 62° | 94% | 29.96 in Hg | 521 ft | |||
| 08-मई | 00:35 | VFR | 110° | 3 kt | 10 miles | 18° | 64° | 17° | 62° | 94% | 29.96 in Hg | 521 ft | |||
| 08-मई | 00:15 | VFR | 100° | 4 kt | 10 miles | 18° | 64° | 17° | 62° | 93% | 29.96 in Hg | 521 ft | |||
| 07-मई | 23:55 | VFR | 100° | 4 kt | 10 miles | 18° | 64° | 17° | 62° | 92% | 29.98 in Hg | 501 ft | |||
| 07-मई | 23:35 | VFR | 100° | 4 kt | 10 miles | 18° | 64° | 17° | 62° | 92% | 29.99 in Hg | 491 ft | |||
| 07-मई | 23:15 | VFR | 60° | 3 kt | 10 miles | 18° | 64° | 17° | 62° | 92% | 29.99 in Hg | 491 ft | |||
| 07-मई | 22:55 | VFR | 40° | 3 kt | 10 miles | 19° | 66° | 17° | 62° | 90% | 30.00 in Hg | 601 ft | |||
| 07-मई | 22:35 | VFR | 70° | 3 kt | 10 miles | 19° | 66° | 17° | 62° | 88% | 29.99 in Hg | 611 ft | |||
| 07-मई | 22:15 | VFR | 50° | 4 kt | 10 miles | 19° | 66° | 17° | 62° | 89% | 29.99 in Hg | 611 ft | |||
| 07-मई | 21:55 | VFR | Calm | 10 miles | 19° | 66° | 17° | 62° | 88% | 29.98 in Hg | 621 ft | ||||
| 07-मई | 21:35 | VFR | 90° | 4 kt | 10 miles | 19° | 66° | 17° | 62° | 87% | 29.96 in Hg | 641 ft | |||
| 07-मई | 21:15 | VFR | Calm | 10 miles | 19° | 66° | 17° | 62° | 86% | 29.98 in Hg | 621 ft | ||||
| 07-मई | 20:55 | VFR | 30° | 3 kt | 10 miles | 19° | 66° | 17° | 62° | 86% | 29.98 in Hg | 621 ft |
लॉगिन
| Your browser is unsupported. अपना ब्राऊजर अपग्रेड करें |
